createdAt,value
2023-03-16T00:00:19.037Z,2.97
2023-03-16T00:02:46.672Z,2.97
2023-03-16T00:05:14.644Z,3.00
2023-03-16T00:07:42.577Z,2.90
2023-03-16T00:10:12.499Z,2.87
2023-03-16T00:12:39.972Z,3.10
2023-03-16T00:15:07.719Z,3.42
2023-03-16T00:17:35.270Z,2.83
2023-03-16T00:20:06.556Z,2.95
2023-03-16T00:22:34.201Z,3.22
2023-03-16T00:25:01.900Z,3.22
2023-03-16T00:27:29.408Z,3.60
2023-03-16T00:29:57.008Z,2.53
2023-03-16T00:32:27.098Z,3.10
2023-03-16T00:34:54.587Z,3.28
2023-03-16T00:37:23.905Z,3.30
2023-03-16T00:39:52.309Z,2.87
2023-03-16T00:42:20.051Z,2.80
2023-03-16T00:44:47.601Z,3.33
2023-03-16T00:47:15.324Z,3.05
2023-03-16T00:49:44.043Z,3.25
2023-03-16T00:52:15.892Z,3.72
2023-03-16T00:54:44.785Z,2.92
2023-03-16T00:57:18.776Z,3.00
2023-03-16T00:59:47.755Z,2.87
2023-03-16T01:02:16.985Z,3.53
2023-03-16T01:04:44.164Z,3.47
2023-03-16T01:07:14.841Z,3.75
2023-03-16T01:09:42.619Z,3.30
2023-03-16T01:12:14.612Z,3.35
2023-03-16T01:14:42.861Z,2.97
2023-03-16T01:17:10.296Z,3.55
2023-03-16T01:19:37.908Z,3.20
2023-03-16T01:22:06.620Z,3.97
2023-03-16T01:24:34.888Z,3.08
2023-03-16T01:27:02.970Z,3.70
2023-03-16T01:29:31.304Z,3.33
2023-03-16T01:31:59.185Z,3.50
2023-03-16T01:34:26.575Z,3.62
2023-03-16T01:36:54.960Z,2.72
2023-03-16T01:39:22.396Z,3.53
2023-03-16T01:41:50.000Z,3.42
2023-03-16T01:44:30.636Z,2.95
2023-03-16T01:47:00.760Z,3.80
2023-03-16T01:49:36.989Z,2.50
2023-03-16T01:52:09.191Z,3.30
2023-03-16T01:54:42.464Z,3.03
2023-03-16T01:57:19.640Z,3.10
2023-03-16T01:59:53.165Z,2.87
2023-03-16T02:02:23.432Z,3.00
2023-03-16T02:05:00.042Z,3.20
2023-03-16T02:07:29.279Z,3.20
2023-03-16T02:09:59.108Z,3.58
2023-03-16T02:12:26.510Z,3.45
2023-03-16T02:14:53.672Z,3.42
2023-03-16T02:17:27.630Z,3.67
2023-03-16T02:20:13.662Z,3.00
2023-03-16T02:22:46.888Z,3.78
2023-03-16T02:25:17.062Z,3.15
2023-03-16T02:28:15.669Z,3.17
2023-03-16T02:30:43.613Z,3.42
2023-03-16T02:33:11.965Z,3.53
2023-03-16T02:35:39.141Z,4.18
2023-03-16T02:38:06.357Z,3.67
2023-03-16T02:40:35.678Z,3.20
2023-03-16T02:43:12.882Z,3.50
2023-03-16T02:45:51.237Z,3.25
2023-03-16T02:48:27.609Z,3.10
2023-03-16T02:50:55.323Z,3.42
2023-03-16T02:53:22.998Z,3.62
2023-03-16T02:55:50.661Z,3.45
2023-03-16T02:58:18.432Z,3.78
2023-03-16T03:00:46.886Z,3.67
2023-03-16T03:03:15.885Z,3.92
2023-03-16T03:05:43.440Z,3.00
2023-03-16T03:08:10.927Z,3.83
2023-03-16T03:10:38.592Z,3.55
2023-03-16T03:13:09.819Z,4.78
2023-03-16T03:15:38.121Z,3.47
2023-03-16T03:18:06.385Z,3.20
2023-03-16T03:20:33.810Z,3.78
2023-03-16T03:23:00.925Z,4.32
2023-03-16T03:25:28.354Z,3.85
2023-03-16T03:27:55.783Z,3.75
2023-03-16T03:30:24.739Z,4.00
2023-03-16T03:32:55.325Z,4.35
2023-03-16T03:35:22.780Z,3.70
2023-03-16T03:37:50.444Z,4.18
2023-03-16T03:40:18.706Z,3.80
2023-03-16T03:42:46.562Z,3.58
2023-03-16T03:45:14.545Z,4.03
2023-03-16T03:47:43.134Z,3.80
2023-03-16T03:50:12.353Z,3.78
2023-03-16T03:52:41.087Z,3.87
2023-03-16T03:55:09.549Z,4.37
2023-03-16T03:57:36.791Z,3.45
2023-03-16T04:00:13.548Z,3.87
2023-03-16T04:02:40.937Z,4.30
2023-03-16T04:05:09.639Z,4.28
2023-03-16T04:07:37.094Z,3.92
2023-03-16T04:10:06.057Z,3.53
2023-03-16T04:12:33.959Z,4.50
2023-03-16T04:15:01.278Z,4.10
2023-03-16T04:17:30.603Z,3.37
2023-03-16T04:19:58.472Z,4.53
2023-03-16T04:22:25.719Z,4.40
2023-03-16T04:24:53.437Z,4.20
2023-03-16T04:27:21.249Z,4.32
2023-03-16T04:29:48.440Z,3.92
2023-03-16T04:32:15.825Z,4.40
2023-03-16T04:34:43.907Z,5.03
2023-03-16T04:37:11.943Z,4.30
2023-03-16T04:39:39.314Z,4.28
2023-03-16T04:42:06.954Z,4.32
2023-03-16T04:44:34.256Z,4.78
2023-03-16T04:47:01.481Z,4.87
2023-03-16T04:49:32.224Z,4.93
2023-03-16T04:51:59.445Z,4.97
2023-03-16T04:54:26.796Z,4.43
2023-03-16T04:56:54.295Z,4.25
2023-03-16T04:59:24.820Z,4.80
2023-03-16T05:01:53.718Z,4.12
2023-03-16T05:04:22.108Z,4.62
2023-03-16T05:06:49.687Z,4.22
2023-03-16T05:09:17.139Z,4.18
2023-03-16T05:11:44.701Z,4.37
2023-03-16T05:14:12.255Z,4.40
2023-03-16T05:16:41.958Z,5.80
2023-03-16T05:19:09.572Z,5.37
2023-03-16T05:21:38.730Z,4.75
2023-03-16T05:24:08.635Z,4.70
2023-03-16T05:26:36.140Z,5.87
2023-03-16T05:29:05.017Z,5.12
2023-03-16T05:31:33.581Z,4.70
2023-03-16T05:34:02.442Z,4.47
2023-03-16T05:36:29.695Z,4.90
2023-03-16T05:38:58.328Z,4.60
2023-03-16T05:41:26.221Z,4.72
2023-03-16T05:43:54.102Z,4.80
2023-03-16T05:46:21.925Z,5.12
2023-03-16T05:48:51.016Z,4.40
2023-03-16T05:51:18.662Z,4.70
2023-03-16T05:53:46.686Z,4.37
2023-03-16T05:56:15.115Z,5.05
2023-03-16T05:58:42.619Z,4.25
2023-03-16T06:01:12.943Z,4.30
2023-03-16T06:03:41.919Z,4.40
2023-03-16T06:06:09.616Z,4.57
2023-03-16T06:08:37.737Z,3.92
2023-03-16T06:11:06.768Z,3.92
2023-03-16T06:13:34.513Z,4.43
2023-03-16T06:16:02.570Z,4.37
2023-03-16T06:18:30.441Z,3.90
2023-03-16T06:20:57.648Z,4.57
2023-03-16T06:23:25.103Z,4.75
2023-03-16T06:25:55.199Z,4.20
2023-03-16T06:28:23.407Z,4.45
2023-03-16T06:30:54.182Z,5.57
2023-03-16T06:33:22.038Z,4.20
2023-03-16T06:35:51.273Z,4.00
2023-03-16T06:38:19.651Z,4.70
2023-03-16T06:40:52.886Z,4.20
2023-03-16T06:43:20.913Z,3.67
2023-03-16T06:45:48.484Z,4.43
2023-03-16T06:48:16.139Z,4.62
2023-03-16T06:50:46.407Z,4.03
2023-03-16T06:53:14.004Z,4.68
2023-03-16T06:55:41.929Z,4.65
2023-03-16T06:58:09.262Z,3.85
2023-03-16T07:00:37.130Z,4.57
2023-03-16T07:03:04.344Z,4.20
2023-03-16T07:05:31.851Z,4.40
2023-03-16T07:07:59.556Z,5.25
2023-03-16T07:10:27.407Z,5.22
2023-03-16T07:12:55.377Z,5.22
2023-03-16T07:15:25.603Z,4.53
2023-03-16T07:17:53.429Z,4.85
2023-03-16T07:20:23.490Z,5.20
2023-03-16T07:22:52.432Z,4.70
2023-03-16T07:25:19.783Z,4.70
2023-03-16T07:27:47.630Z,4.45
2023-03-16T07:30:15.985Z,5.28
2023-03-16T07:32:44.154Z,4.55
2023-03-16T07:35:11.787Z,5.50
2023-03-16T07:37:39.837Z,4.28
2023-03-16T07:40:09.288Z,5.65
2023-03-16T07:42:37.673Z,4.05
2023-03-16T07:45:06.404Z,5.00
2023-03-16T07:47:33.970Z,6.03
2023-03-16T07:50:01.635Z,4.60
2023-03-16T07:52:29.727Z,5.05
2023-03-16T07:54:57.763Z,5.00
2023-03-16T07:57:25.004Z,4.07
2023-03-16T07:59:52.907Z,4.90
2023-03-16T08:02:21.742Z,4.18
2023-03-16T08:04:49.440Z,4.62
2023-03-16T08:07:17.128Z,4.85
2023-03-16T08:09:45.284Z,5.25
2023-03-16T08:12:15.192Z,5.03
2023-03-16T08:14:42.327Z,5.18
2023-03-16T08:17:09.901Z,5.03
2023-03-16T08:19:38.785Z,4.60
2023-03-16T08:22:06.442Z,4.55
2023-03-16T08:24:34.942Z,4.60
2023-03-16T08:27:03.661Z,4.70
2023-03-16T08:29:34.424Z,4.47
2023-03-16T08:32:03.061Z,4.62
2023-03-16T08:34:31.845Z,4.62
2023-03-16T08:37:00.002Z,5.15
2023-03-16T08:39:27.436Z,4.72
2023-03-16T08:41:56.662Z,5.15
2023-03-16T08:44:25.785Z,4.70
2023-03-16T08:46:53.038Z,5.03
2023-03-16T08:49:21.048Z,4.80
2023-03-16T08:51:48.449Z,3.75
2023-03-16T08:54:15.968Z,4.90
2023-03-16T08:56:44.581Z,4.28
2023-03-16T08:59:27.047Z,3.78
2023-03-16T09:01:56.433Z,3.75
2023-03-16T09:04:23.745Z,4.68
2023-03-16T09:07:05.862Z,3.60
2023-03-16T09:12:04.382Z,4.05
2023-03-16T09:14:32.027Z,3.67
2023-03-16T09:16:59.697Z,4.78
2023-03-16T09:19:29.149Z,3.75
2023-03-16T09:21:58.828Z,3.95
2023-03-16T09:24:26.398Z,3.90
2023-03-16T09:26:53.640Z,4.30
2023-03-16T09:29:22.182Z,3.95
2023-03-16T09:31:49.791Z,3.85
2023-03-16T09:34:17.072Z,3.55
2023-03-16T09:36:44.163Z,3.70
2023-03-16T09:39:13.273Z,3.70
2023-03-16T09:42:04.643Z,3.92
2023-03-16T09:44:53.708Z,3.72
2023-03-16T09:47:32.869Z,3.60
2023-03-16T09:50:04.905Z,3.87
2023-03-16T09:53:07.249Z,3.37
2023-03-16T09:55:36.669Z,3.55
2023-03-16T09:58:08.013Z,3.60
2023-03-16T10:00:39.719Z,3.17
2023-03-16T10:03:08.199Z,3.47
2023-03-16T10:05:36.110Z,3.35
2023-03-16T10:08:48.607Z,3.78
2023-03-16T10:11:25.967Z,2.90
2023-03-16T10:13:59.226Z,3.28
2023-03-16T10:16:38.736Z,4.50
2023-03-16T10:19:23.284Z,3.60
2023-03-16T10:21:52.729Z,3.60
2023-03-16T10:24:42.249Z,3.17
2023-03-16T10:27:20.459Z,3.50
2023-03-16T10:29:47.803Z,3.70
2023-03-16T10:32:19.624Z,3.33
2023-03-16T10:34:59.491Z,4.05
2023-03-16T10:37:30.105Z,2.85
2023-03-16T10:39:57.358Z,2.72
2023-03-16T10:42:25.260Z,3.20
2023-03-16T10:45:01.657Z,2.37
2023-03-16T10:47:32.279Z,2.97
2023-03-16T10:50:12.553Z,3.72
2023-03-16T10:52:43.584Z,3.58
2023-03-16T10:55:17.174Z,3.55
2023-03-16T10:57:49.998Z,3.37
2023-03-16T11:00:26.037Z,3.22
2023-03-16T11:02:55.287Z,3.70
2023-03-16T11:05:31.095Z,4.15
2023-03-16T11:08:09.659Z,3.87
2023-03-16T11:10:54.746Z,3.40
2023-03-16T11:13:35.116Z,3.62
2023-03-16T11:16:05.308Z,3.22
2023-03-16T11:18:37.063Z,3.45
2023-03-16T11:21:12.683Z,3.55
2023-03-16T11:23:46.376Z,3.80
2023-03-16T11:26:21.584Z,3.08
2023-03-16T11:29:11.326Z,3.00
2023-03-16T11:31:54.013Z,2.83
2023-03-16T11:34:29.672Z,2.67
2023-03-16T11:37:13.038Z,2.45
2023-03-16T11:39:56.449Z,2.28
2023-03-16T11:42:30.664Z,2.60
2023-03-16T11:45:03.534Z,3.05
2023-03-16T11:47:55.614Z,2.55
2023-03-16T11:50:54.158Z,2.53
2023-03-16T11:53:22.770Z,3.00
2023-03-16T11:55:52.807Z,2.67
2023-03-16T11:58:32.557Z,2.20
2023-03-16T12:01:28.495Z,2.42
2023-03-16T12:04:16.195Z,2.15
2023-03-16T12:07:12.669Z,2.15
2023-03-16T12:09:58.516Z,2.50
2023-03-16T12:12:34.460Z,1.80
2023-03-16T12:15:32.586Z,2.00
2023-03-16T12:18:16.376Z,1.45
2023-03-16T12:20:48.857Z,1.95
2023-03-16T12:23:37.119Z,2.00
2023-03-16T12:26:05.145Z,1.65
2023-03-16T12:28:33.525Z,2.47
2023-03-16T12:31:12.312Z,1.48
2023-03-16T12:34:07.819Z,1.50
2023-03-16T12:36:41.255Z,1.62
2023-03-16T12:39:13.649Z,1.65
2023-03-16T12:42:02.653Z,2.30
2023-03-16T12:44:44.072Z,1.67
2023-03-16T12:47:48.456Z,1.17
2023-03-16T12:50:18.849Z,1.60
2023-03-16T12:52:48.794Z,1.50
2023-03-16T12:55:16.413Z,1.50
2023-03-16T12:57:44.796Z,1.37
2023-03-16T13:00:13.554Z,1.58
2023-03-16T13:02:53.632Z,1.37
2023-03-16T13:05:34.980Z,1.55
2023-03-16T13:08:10.582Z,1.40
2023-03-16T13:10:39.215Z,1.37
2023-03-16T13:13:16.133Z,1.75
2023-03-16T13:15:47.385Z,1.48
2023-03-16T13:18:15.033Z,1.58
2023-03-16T13:20:48.282Z,1.25
2023-03-16T13:23:23.393Z,1.50
2023-03-16T13:26:15.913Z,1.60
2023-03-16T13:28:47.447Z,1.50
2023-03-16T13:31:22.749Z,1.40
2023-03-16T13:33:54.419Z,1.67
2023-03-16T13:36:21.907Z,1.48
2023-03-16T13:39:07.082Z,1.55
2023-03-16T13:41:34.479Z,1.50
2023-03-16T13:44:04.703Z,1.37
2023-03-16T13:46:31.922Z,1.20
2023-03-16T13:49:02.771Z,1.65
2023-03-16T13:51:34.449Z,1.42
2023-03-16T13:54:25.585Z,1.45
2023-03-16T13:56:55.697Z,1.00
2023-03-16T13:59:23.129Z,1.33
2023-03-16T14:01:58.007Z,1.27
2023-03-16T14:04:29.262Z,2.95
2023-03-16T14:07:01.942Z,1.58
2023-03-16T14:09:34.536Z,1.45
2023-03-16T14:12:02.543Z,2.05
2023-03-16T14:14:36.697Z,1.35
2023-03-16T14:17:11.024Z,3.50
2023-03-16T14:19:43.612Z,1.10
2023-03-16T14:22:13.777Z,1.73
2023-03-16T14:24:41.635Z,1.83
2023-03-16T14:27:19.587Z,2.80
2023-03-16T14:29:53.421Z,1.25
2023-03-16T14:32:32.009Z,1.98
2023-03-16T14:35:12.900Z,1.55
2023-03-16T14:37:41.800Z,1.37
2023-03-16T14:40:33.227Z,1.48
2023-03-16T14:43:03.945Z,1.50
2023-03-16T14:45:34.015Z,1.20
2023-03-16T14:48:04.633Z,1.42
2023-03-16T14:50:33.655Z,1.62
2023-03-16T14:53:01.811Z,2.37
2023-03-16T14:55:29.388Z,1.70
2023-03-16T14:57:57.001Z,1.10
2023-03-16T15:00:25.421Z,2.97
2023-03-16T15:02:57.353Z,1.83
2023-03-16T15:05:31.649Z,1.45
2023-03-16T15:07:58.946Z,2.03
2023-03-16T15:10:29.578Z,1.52
2023-03-16T15:13:06.030Z,1.67
2023-03-16T15:15:33.918Z,2.00
2023-03-16T15:18:01.125Z,2.37
2023-03-16T15:20:31.754Z,2.37
2023-03-16T15:22:59.864Z,1.37
2023-03-16T15:25:46.818Z,1.58
2023-03-16T15:28:22.665Z,1.60
2023-03-16T15:30:52.579Z,1.52
2023-03-16T15:33:20.612Z,2.20
2023-03-16T15:35:49.405Z,2.15
2023-03-16T15:38:24.248Z,3.20
2023-03-16T15:40:53.167Z,8.13
2023-03-16T15:43:27.147Z,1.95
2023-03-16T15:45:56.240Z,2.80
2023-03-16T15:48:26.239Z,2.87
2023-03-16T15:50:55.639Z,1.83
2023-03-16T15:53:31.298Z,2.33
2023-03-16T15:56:19.788Z,1.80
2023-03-16T15:58:47.678Z,2.72
2023-03-16T16:01:39.572Z,3.37
2023-03-16T16:04:13.279Z,2.03
2023-03-16T16:06:41.256Z,1.60
2023-03-16T16:09:08.857Z,1.73
2023-03-16T16:11:36.660Z,2.45
2023-03-16T16:14:03.923Z,1.90
2023-03-16T16:16:33.196Z,1.87
2023-03-16T16:19:00.604Z,1.92
2023-03-16T16:21:32.652Z,12.90
2023-03-16T16:24:02.190Z,2.30
2023-03-16T16:26:49.642Z,3.08
2023-03-16T16:29:22.366Z,4.43
2023-03-16T16:31:51.482Z,3.95
2023-03-16T16:34:21.436Z,3.83
2023-03-16T16:36:49.174Z,2.25
2023-03-16T16:39:17.056Z,2.40
2023-03-16T16:41:44.866Z,2.55
2023-03-16T16:44:18.166Z,2.30
2023-03-16T16:46:46.212Z,2.37
2023-03-16T16:49:22.584Z,2.85
2023-03-16T16:51:51.477Z,8.13
2023-03-16T16:54:29.281Z,5.32
2023-03-16T16:56:57.827Z,8.32
2023-03-16T16:59:25.540Z,9.45
2023-03-16T17:01:57.427Z,8.88
2023-03-16T17:04:27.155Z,6.85
2023-03-16T17:07:00.752Z,5.18
2023-03-16T17:09:30.094Z,5.72
2023-03-16T17:12:01.455Z,6.45
2023-03-16T17:14:31.062Z,6.25
2023-03-16T17:17:03.019Z,16.77
2023-03-16T17:19:30.494Z,8.68
2023-03-16T17:21:58.337Z,8.75
2023-03-16T17:24:25.796Z,17.87
2023-03-16T17:26:56.241Z,13.55
2023-03-16T17:29:26.174Z,9.68
2023-03-16T17:31:53.928Z,10.70
2023-03-16T17:34:24.445Z,13.27
2023-03-16T17:36:51.794Z,15.90
2023-03-16T17:39:27.181Z,21.08
2023-03-16T17:41:59.521Z,13.60
2023-03-16T17:44:35.058Z,21.40
2023-03-16T17:47:02.335Z,21.27
2023-03-16T17:49:30.799Z,16.15
2023-03-16T17:51:58.120Z,14.52
2023-03-16T17:54:25.397Z,19.23
2023-03-16T17:56:54.086Z,21.73
2023-03-16T17:59:22.294Z,34.90
2023-03-16T18:01:49.520Z,23.80
2023-03-16T18:04:18.904Z,14.75
2023-03-16T18:06:47.504Z,10.25
2023-03-16T18:09:18.935Z,11.70
2023-03-16T18:11:49.883Z,13.45
2023-03-16T18:14:25.499Z,12.18
2023-03-16T18:16:54.535Z,11.80
2023-03-16T18:19:27.169Z,13.80
2023-03-16T18:21:54.660Z,14.50
2023-03-16T18:24:25.662Z,13.05
2023-03-16T18:26:53.492Z,13.15
2023-03-16T18:29:22.365Z,13.02
2023-03-16T18:31:50.085Z,11.85
2023-03-16T18:34:21.673Z,9.10
2023-03-16T18:36:50.209Z,10.95
2023-03-16T18:39:20.532Z,9.20
2023-03-16T18:41:48.158Z,8.05
2023-03-16T18:44:19.730Z,10.23
2023-03-16T18:46:48.106Z,13.32
2023-03-16T18:49:30.238Z,10.73
2023-03-16T18:51:57.401Z,10.00
2023-03-16T18:54:27.900Z,10.10
2023-03-16T18:56:55.277Z,10.45
2023-03-16T18:59:22.414Z,10.05
2023-03-16T19:01:50.584Z,11.50
2023-03-16T19:04:26.554Z,13.25
2023-03-16T19:06:54.732Z,23.23
2023-03-16T19:09:27.635Z,16.58
2023-03-16T19:11:58.162Z,13.73
2023-03-16T19:14:31.236Z,12.45
2023-03-16T19:16:59.115Z,19.50
2023-03-16T19:19:27.436Z,22.08
2023-03-16T19:22:05.181Z,14.38
2023-03-16T19:24:35.824Z,11.32
2023-03-16T19:27:03.251Z,20.62
2023-03-16T19:29:34.499Z,27.13
2023-03-16T19:32:02.154Z,22.92
2023-03-16T19:34:29.844Z,15.35
2023-03-16T19:36:59.970Z,12.65
2023-03-16T19:39:27.883Z,16.80
2023-03-16T19:41:57.126Z,11.32
2023-03-16T19:44:26.743Z,13.98
2023-03-16T19:46:55.101Z,12.18
2023-03-16T19:49:24.403Z,14.85
2023-03-16T19:51:56.163Z,17.08
2023-03-16T19:54:35.072Z,17.05
2023-03-16T19:57:10.193Z,11.40
2023-03-16T19:59:37.794Z,11.35
2023-03-16T20:02:23.847Z,9.95
2023-03-16T20:04:51.845Z,7.60
2023-03-16T20:07:19.151Z,8.43
2023-03-16T20:09:46.702Z,7.20
2023-03-16T20:12:22.594Z,9.38
2023-03-16T20:14:51.350Z,7.93
2023-03-16T20:17:23.271Z,7.82
2023-03-16T20:19:51.843Z,11.18
2023-03-16T20:22:24.742Z,17.92
2023-03-16T20:24:53.065Z,17.87
2023-03-16T20:27:22.731Z,18.52
2023-03-16T20:29:50.668Z,15.45
2023-03-16T20:32:18.170Z,14.87
2023-03-16T20:34:46.406Z,13.35
2023-03-16T20:37:27.859Z,12.23
2023-03-16T20:39:57.505Z,11.32
2023-03-16T20:42:32.987Z,8.93
2023-03-16T20:45:00.918Z,11.38
2023-03-16T20:47:28.011Z,9.30
2023-03-16T20:49:57.539Z,8.98
2023-03-16T20:52:30.089Z,9.13
2023-03-16T20:54:58.600Z,8.45
2023-03-16T20:57:27.374Z,7.00
2023-03-16T20:59:55.420Z,8.73
2023-03-16T21:02:29.848Z,10.23
2023-03-16T21:04:58.832Z,11.02
2023-03-16T21:07:26.080Z,9.52
2023-03-16T21:09:53.398Z,9.00
2023-03-16T21:12:22.717Z,9.02
2023-03-16T21:14:50.337Z,8.77
2023-03-16T21:17:25.896Z,8.70
2023-03-16T21:19:53.882Z,16.80
2023-03-16T21:22:23.531Z,48.70
2023-03-16T21:24:51.141Z,16.20
2023-03-16T21:27:27.299Z,10.38
2023-03-16T21:29:55.389Z,11.32
2023-03-16T21:32:25.127Z,10.50
2023-03-16T21:34:52.469Z,9.30
2023-03-16T21:37:24.084Z,10.82
2023-03-16T21:39:52.205Z,14.45
2023-03-16T21:42:19.576Z,9.90
2023-03-16T21:44:47.216Z,8.75
2023-03-16T21:47:26.676Z,11.18
2023-03-16T21:49:54.634Z,11.70
2023-03-16T21:52:28.613Z,9.48
2023-03-16T21:54:57.245Z,9.50
2023-03-16T21:57:24.889Z,9.23
2023-03-16T21:59:52.062Z,9.65
2023-03-16T22:02:23.349Z,9.77
2023-03-16T22:04:51.842Z,8.30
2023-03-16T22:07:19.637Z,8.48
2023-03-16T22:09:46.797Z,10.25
2023-03-16T22:12:14.345Z,10.65
2023-03-16T22:14:42.002Z,9.82
2023-03-16T22:17:21.421Z,8.77
2023-03-16T22:19:48.881Z,8.73
2023-03-16T22:22:17.388Z,9.38
2023-03-16T22:24:44.549Z,7.78
2023-03-16T22:27:21.778Z,7.53
2023-03-16T22:29:51.103Z,6.97
2023-03-16T22:32:21.252Z,8.00
2023-03-16T22:34:55.869Z,7.28
2023-03-16T22:37:26.045Z,8.50
2023-03-16T22:39:53.638Z,6.30
2023-03-16T22:42:38.876Z,8.23
2023-03-16T22:45:18.934Z,7.22
2023-03-16T22:47:47.760Z,7.60
2023-03-16T22:50:16.855Z,6.85
2023-03-16T22:52:48.742Z,7.20
2023-03-16T22:55:19.359Z,8.45
2023-03-16T22:57:47.152Z,8.68
2023-03-16T23:00:20.933Z,8.10
2023-03-16T23:02:49.310Z,8.70
2023-03-16T23:05:25.220Z,12.15
2023-03-16T23:07:53.349Z,10.68
2023-03-16T23:10:22.917Z,9.05
2023-03-16T23:12:51.421Z,14.10
2023-03-16T23:15:22.125Z,15.27
2023-03-16T23:17:49.937Z,11.12
2023-03-16T23:20:19.161Z,10.15
2023-03-16T23:22:47.260Z,24.50
2023-03-16T23:25:14.488Z,13.35
2023-03-16T23:27:42.154Z,12.43
2023-03-16T23:30:22.570Z,7.68
2023-03-16T23:32:51.983Z,10.95
2023-03-16T23:35:28.322Z,8.57
2023-03-16T23:37:56.064Z,8.68
2023-03-16T23:40:25.617Z,7.65
2023-03-16T23:42:54.251Z,8.85
2023-03-16T23:45:39.857Z,9.00
2023-03-16T23:48:18.053Z,7.07
2023-03-16T23:50:48.249Z,6.65
2023-03-16T23:53:17.750Z,6.35
2023-03-16T23:55:45.749Z,6.78
2023-03-16T23:58:13.500Z,6.47
